Time;durP1;ratioP1;P1;durP2;ratioP2;P2;SDS_P1;SDS_P2;PMS_P1;PMS_P2;Temp;Humidity;BMP_temperature;BMP_pressure;BME280_temperature;BME280_humidity;BME280_pressure;Samples;Min_cycle;Max_cycle;Signal;HPM_P1;HPM_P2
2021/05/26 00:01:49;;;;;;;0.98;0.52;;;;;;;;;;5080969;28;20206;-42
2021/05/26 00:04:15;;;;;;;1.02;0.70;;;;;;;;;;5083771;28;20192;-42
2021/05/26 00:06:41;;;;;;;0.80;0.47;;;;;;;;;;5082630;28;20174;-42
2021/05/26 00:09:07;;;;;;;0.65;0.60;;;;;;;;;;5094750;28;20185;-42
2021/05/26 00:11:33;;;;;;;0.85;0.68;;;;;;;;;;5094119;28;20753;-42
2021/05/26 00:14:00;;;;;;;1.73;0.85;;;;;;;;;;5091916;28;20209;-42
2021/05/26 00:16:26;;;;;;;0.65;0.65;;;;;;;;;;5094434;28;20174;-42
2021/05/26 00:18:53;;;;;;;0.63;0.63;;;;;;;;;;5092641;28;20174;-42
2021/05/26 00:21:19;;;;;;;1.48;1.02;;;;;;;;;;5094143;28;20244;-42
2021/05/26 00:23:45;;;;;;;0.60;0.50;;;;;;;;;;5075272;28;20230;-43
2021/05/26 00:26:11;;;;;;;1.05;0.60;;;;;;;;;;5092276;28;20178;-42
2021/05/26 00:28:39;;;;;;;1.23;0.50;;;;;;;;;;5094420;28;20472;-43
2021/05/26 00:31:08;;;;;;;0.50;0.50;;;;;;;;;;5093983;28;20162;-42
2021/05/26 00:33:34;;;;;;;0.70;0.60;;;;;;;;;;5091942;28;20235;-42
2021/05/26 00:36:00;;;;;;;0.85;0.50;;;;;;;;;;5094188;28;20366;-42
2021/05/26 00:38:26;;;;;;;0.40;0.40;;;;;;;;;;5093779;28;20213;-43
2021/05/26 00:40:52;;;;;;;1.95;0.77;;;;;;;;;;5093899;28;20170;-43
2021/05/26 00:43:18;;;;;;;0.95;0.57;;;;;;;;;;5078986;28;20194;-43
2021/05/26 00:45:46;;;;;;;0.40;0.40;;;;;;;;;;5087571;28;20174;-42
2021/05/26 00:48:12;;;;;;;1.27;0.50;;;;;;;;;;5093536;28;20249;-42
2021/05/26 00:50:40;;;;;;;1.13;0.60;;;;;;;;;;5093796;28;20198;-42
2021/05/26 00:53:10;;;;;;;0.70;0.50;;;;;;;;;;5081146;28;20480;-42
2021/05/26 00:55:36;;;;;;;0.47;0.47;;;;;;;;;;5086266;28;20170;-42
2021/05/26 00:58:03;;;;;;;0.55;0.55;;;;;;;;;;5094473;28;20553;-42
2021/05/26 01:00:30;;;;;;;0.75;0.45;;;;;;;;;;5093182;28;20484;-42
2021/05/26 01:02:56;;;;;;;1.23;0.63;;;;;;;;;;5082421;28;20251;-42
2021/05/26 01:05:23;;;;;;;0.55;0.50;;;;;;;;;;5083991;28;20170;-42
2021/05/26 01:07:50;;;;;;;0.70;0.40;;;;;;;;;;5092069;28;20706;-42
2021/05/26 01:10:17;;;;;;;1.00;0.47;;;;;;;;;;5073582;28;20178;-42
2021/05/26 01:12:44;;;;;;;0.50;0.50;;;;;;;;;;5077483;28;20202;-42
2021/05/26 01:15:11;;;;;;;1.65;0.40;;;;;;;;;;5081978;28;20174;-42
2021/05/26 01:17:37;;;;;;;0.98;0.40;;;;;;;;;;5094657;28;20174;-43
2021/05/26 01:20:04;;;;;;;0.63;0.50;;;;;;;;;;5097805;28;20560;-42
2021/05/26 01:22:30;;;;;;;0.85;0.40;;;;;;;;;;5090198;28;20224;-43
2021/05/26 01:24:57;;;;;;;0.32;0.32;;;;;;;;;;5082523;28;20184;-43
2021/05/26 01:27:23;;;;;;;1.35;0.50;;;;;;;;;;5097412;28;20170;-43
2021/05/26 01:29:49;;;;;;;0.35;0.32;;;;;;;;;;5097533;28;20317;-42
2021/05/26 01:32:15;;;;;;;0.60;0.60;;;;;;;;;;5096103;28;20561;-42
2021/05/26 01:34:41;;;;;;;0.98;0.50;;;;;;;;;;5097264;28;20265;-42
2021/05/26 01:37:07;;;;;;;0.40;0.40;;;;;;;;;;5090731;28;20517;-42
2021/05/26 01:39:33;;;;;;;0.93;0.60;;;;;;;;;;5076634;28;20183;-42
2021/05/26 01:41:59;;;;;;;0.63;0.55;;;;;;;;;;5078950;28;20515;-42
2021/05/26 01:44:26;;;;;;;0.85;0.55;;;;;;;;;;5096952;28;20253;-42
2021/05/26 01:46:53;;;;;;;0.75;0.73;;;;;;;;;;5097151;28;20169;-42
2021/05/26 01:49:19;;;;;;;0.57;0.50;;;;;;;;;;5096233;28;20189;-42
2021/05/26 01:51:45;;;;;;;1.20;0.43;;;;;;;;;;5095824;28;20239;-42
2021/05/26 01:54:11;;;;;;;0.40;0.40;;;;;;;;;;5076600;28;20174;-43
2021/05/26 01:56:37;;;;;;;0.45;0.45;;;;;;;;;;5093266;28;20181;-43
2021/05/26 01:59:03;;;;;;;0.50;0.50;;;;;;;;;;5084079;28;20175;-42
2021/05/26 02:01:29;;;;;;;0.85;0.50;;;;;;;;;;5081397;28;20198;-42
2021/05/26 02:03:55;;;;;;;1.05;0.55;;;;;;;;;;5085691;28;20604;-42
2021/05/26 02:06:24;;;;;;;0.75;0.55;;;;;;;;;;5090686;28;20201;-42
2021/05/26 02:08:51;;;;;;;0.55;0.43;;;;;;;;;;5096161;28;20167;-42
2021/05/26 02:14:10;;;;;;;0.38;0.38;;;;;;;;;;5076931;28;20248;-42
2021/05/26 02:16:37;;;;;;;0.65;0.40;;;;;;;;;;5092367;28;20192;-42
2021/05/26 02:19:04;;;;;;;0.40;0.30;;;;;;;;;;5096354;28;20166;-42
2021/05/26 02:21:30;;;;;;;0.68;0.50;;;;;;;;;;5093500;28;20561;-42
2021/05/26 02:23:57;;;;;;;1.45;0.70;;;;;;;;;;5096518;28;20197;-42
2021/05/26 02:26:23;;;;;;;0.52;0.52;;;;;;;;;;5095647;28;20169;-42
2021/05/26 02:28:50;;;;;;;0.98;0.40;;;;;;;;;;5095534;28;20266;-42
2021/05/26 02:31:16;;;;;;;0.47;0.32;;;;;;;;;;5094937;28;20174;-42
2021/05/26 02:33:42;;;;;;;0.40;0.32;;;;;;;;;;5075578;28;20185;-42
2021/05/26 02:36:08;;;;;;;0.73;0.45;;;;;;;;;;5087620;28;20186;-42
2021/05/26 02:38:34;;;;;;;0.55;0.40;;;;;;;;;;5092944;28;20189;-42
2021/05/26 02:41:00;;;;;;;0.50;0.50;;;;;;;;;;5080285;28;20256;-42
2021/05/26 02:43:26;;;;;;;0.60;0.50;;;;;;;;;;5077797;28;20294;-42
2021/05/26 02:45:52;;;;;;;0.50;0.40;;;;;;;;;;5085196;28;20228;-42
2021/05/26 02:48:18;;;;;;;0.40;0.35;;;;;;;;;;5095614;28;20232;-42
2021/05/26 02:50:44;;;;;;;0.40;0.40;;;;;;;;;;5080651;28;20617;-42
2021/05/26 02:53:11;;;;;;;0.40;0.40;;;;;;;;;;5079735;28;20803;-42
2021/05/26 02:55:37;;;;;;;0.30;0.28;;;;;;;;;;5081861;28;20181;-42
2021/05/26 02:58:03;;;;;;;0.80;0.50;;;;;;;;;;5095263;28;20174;-43
2021/05/26 03:00:29;;;;;;;0.32;0.32;;;;;;;;;;5094203;28;20182;-42
2021/05/26 03:02:55;;;;;;;0.45;0.45;;;;;;;;;;5088015;28;20307;-42
2021/05/26 03:05:22;;;;;;;0.40;0.35;;;;;;;;;;5095584;28;20177;-42
2021/05/26 03:07:48;;;;;;;0.40;0.40;;;;;;;;;;5095603;28;20162;-42
2021/05/26 03:10:15;;;;;;;0.40;0.40;;;;;;;;;;5094355;28;20173;-42
2021/05/26 03:12:41;;;;;;;1.30;0.55;;;;;;;;;;5077376;28;20190;-42
2021/05/26 03:15:08;;;;;;;0.38;0.30;;;;;;;;;;5077672;28;20229;-42
2021/05/26 03:17:35;;;;;;;0.30;0.30;;;;;;;;;;5095134;28;20186;-42
2021/05/26 03:20:01;;;;;;;0.40;0.40;;;;;;;;;;5095402;28;20269;-43
2021/05/26 03:22:27;;;;;;;0.50;0.40;;;;;;;;;;5084671;28;20198;-42
2021/05/26 03:24:53;;;;;;;0.50;0.45;;;;;;;;;;5075002;28;20459;-42
2021/05/26 03:27:26;;;;;;;0.40;0.30;;;;;;;;;;5094615;28;20177;-42
2021/05/26 03:29:52;;;;;;;0.45;0.40;;;;;;;;;;5075363;28;20274;-42
2021/05/26 03:32:18;;;;;;;0.35;0.30;;;;;;;;;;5076604;28;20265;-42
2021/05/26 03:34:44;;;;;;;0.40;0.40;;;;;;;;;;5081764;28;20185;-42
2021/05/26 03:37:14;;;;;;;0.20;0.20;;;;;;;;;;5092902;28;20177;-42
2021/05/26 03:39:40;;;;;;;0.40;0.40;;;;;;;;;;5094746;28;20172;-42
2021/05/26 03:42:06;;;;;;;0.73;0.40;;;;;;;;;;5074937;28;20213;-42
2021/05/26 03:44:32;;;;;;;0.40;0.30;;;;;;;;;;5086894;28;20185;-42
2021/05/26 03:46:58;;;;;;;0.30;0.30;;;;;;;;;;5094178;28;20182;-42
2021/05/26 03:49:24;;;;;;;0.47;0.40;;;;;;;;;;5081833;28;20273;-42
2021/05/26 03:51:50;;;;;;;1.20;0.40;;;;;;;;;;5079835;28;20257;-42
2021/05/26 03:54:16;;;;;;;0.30;0.30;;;;;;;;;;5095005;28;20602;-42
2021/05/26 03:56:42;;;;;;;1.20;0.40;;;;;;;;;;5094284;28;20195;-42
2021/05/26 03:59:09;;;;;;;0.50;0.40;;;;;;;;;;5092397;28;20264;-42
2021/05/26 04:01:35;;;;;;;0.80;0.40;;;;;;;;;;5090408;28;20264;-42
2021/05/26 04:04:02;;;;;;;0.20;0.20;;;;;;;;;;5075183;28;20208;-42
2021/05/26 04:06:28;;;;;;;1.02;0.32;;;;;;;;;;5086770;28;20560;-42
2021/05/26 04:08:54;;;;;;;0.90;0.40;;;;;;;;;;5093899;28;20268;-42
2021/05/26 04:11:20;;;;;;;4.60;0.40;;;;;;;;;;5093335;28;20194;-41
2021/05/26 04:13:46;;;;;;;0.40;0.32;;;;;;;;;;5094412;28;20224;-43
2021/05/26 04:16:12;;;;;;;0.75;0.40;;;;;;;;;;5094452;28;20182;-43
2021/05/26 04:18:38;;;;;;;4.60;0.43;;;;;;;;;;5093952;28;20186;-39
2021/05/26 04:21:04;;;;;;;0.40;0.40;;;;;;;;;;5093847;28;20169;-40
2021/05/26 04:23:30;;;;;;;0.43;0.30;;;;;;;;;;5075126;28;20194;-40
2021/05/26 04:25:56;;;;;;;0.95;0.60;;;;;;;;;;5082155;28;20181;-40
2021/05/26 04:28:23;;;;;;;0.82;0.50;;;;;;;;;;5093431;28;20441;-43
2021/05/26 04:30:50;;;;;;;2.38;0.50;;;;;;;;;;5093948;28;20173;-42
2021/05/26 04:33:16;;;;;;;0.75;0.50;;;;;;;;;;5094396;28;20174;-42
2021/05/26 04:35:43;;;;;;;0.95;0.40;;;;;;;;;;5093668;28;20181;-42
2021/05/26 04:38:09;;;;;;;0.30;0.30;;;;;;;;;;5091732;28;20235;-42
2021/05/26 04:40:35;;;;;;;0.63;0.30;;;;;;;;;;5090548;28;20188;-42
2021/05/26 04:43:01;;;;;;;0.40;0.30;;;;;;;;;;5089389;28;20201;-42
2021/05/26 04:45:27;;;;;;;9.02;2.05;;;;;;;;;;5079212;28;20549;-42
2021/05/26 04:47:53;;;;;;;13.70;2.50;;;;;;;;;;5092288;28;20261;-42
2021/05/26 04:50:20;;;;;;;15.93;2.83;;;;;;;;;;5079854;28;20197;-43
2021/05/26 04:52:46;;;;;;;8.45;2.33;;;;;;;;;;5075475;28;20182;-42
2021/05/26 04:55:12;;;;;;;11.05;2.90;;;;;;;;;;5078310;28;20186;-42
2021/05/26 04:57:38;;;;;;;8.38;2.20;;;;;;;;;;5096912;28;20204;-42
2021/05/26 05:00:06;;;;;;;11.07;2.40;;;;;;;;;;5085547;28;20204;-42
2021/05/26 05:02:32;;;;;;;7.72;2.08;;;;;;;;;;5079793;28;20263;-42
2021/05/26 05:04:58;;;;;;;8.27;2.00;;;;;;;;;;5077717;28;20175;-43
2021/05/26 05:07:24;;;;;;;7.50;1.98;;;;;;;;;;5095863;28;20489;-42
2021/05/26 05:09:50;;;;;;;7.03;2.30;;;;;;;;;;5092008;28;20257;-42
2021/05/26 05:12:16;;;;;;;7.55;2.00;;;;;;;;;;5089965;28;20249;-42
2021/05/26 05:14:42;;;;;;;8.65;2.08;;;;;;;;;;5097283;28;20307;-42
2021/05/26 05:17:08;;;;;;;10.52;1.77;;;;;;;;;;5089978;28;20167;-42
2021/05/26 05:19:34;;;;;;;9.18;1.90;;;;;;;;;;5097666;28;20193;-42
2021/05/26 05:22:00;;;;;;;4.60;1.52;;;;;;;;;;5095201;28;20219;-42
2021/05/26 05:24:26;;;;;;;7.25;1.70;;;;;;;;;;5089731;28;20189;-42
2021/05/26 05:26:52;;;;;;;6.55;1.58;;;;;;;;;;5097142;28;20495;-42
2021/05/26 05:29:18;;;;;;;5.78;1.70;;;;;;;;;;5087026;28;20285;-42
2021/05/26 05:31:44;;;;;;;9.43;1.60;;;;;;;;;;5095150;28;20174;-42
2021/05/26 05:34:10;;;;;;;5.65;1.75;;;;;;;;;;5096735;28;20457;-42
2021/05/26 05:36:36;;;;;;;5.68;1.65;;;;;;;;;;5096477;28;20213;-42
2021/05/26 05:39:02;;;;;;;4.60;1.10;;;;;;;;;;5097070;28;20186;-42
2021/05/26 05:41:30;;;;;;;5.43;1.70;;;;;;;;;;5096657;28;20169;-42
2021/05/26 05:43:56;;;;;;;3.97;1.20;;;;;;;;;;5080704;28;20202;-42
2021/05/26 05:46:22;;;;;;;4.97;1.77;;;;;;;;;;5085368;28;20577;-42
2021/05/26 05:48:48;;;;;;;5.18;1.60;;;;;;;;;;5106771;28;20177;-42
2021/05/26 05:51:14;;;;;;;2.63;1.55;;;;;;;;;;5117113;28;20252;-42
2021/05/26 05:53:40;;;;;;;4.50;1.63;;;;;;;;;;5101542;28;20174;-42
2021/05/26 05:56:06;;;;;;;6.15;1.75;;;;;;;;;;5082795;28;20177;-42
2021/05/26 05:58:32;;;;;;;4.28;1.20;;;;;;;;;;5096980;28;20170;-42
2021/05/26 06:00:58;;;;;;;4.30;1.42;;;;;;;;;;5096474;28;20454;-42
2021/05/26 06:03:25;;;;;;;3.25;1.35;;;;;;;;;;5089211;28;20198;-42
2021/05/26 06:05:51;;;;;;;5.07;1.60;;;;;;;;;;5095994;28;20209;-42
2021/05/26 06:08:17;;;;;;;3.35;1.40;;;;;;;;;;5095241;28;20190;-42
2021/05/26 06:10:43;;;;;;;2.67;1.10;;;;;;;;;;5096449;28;20555;-42
2021/05/26 06:13:10;;;;;;;1.75;1.08;;;;;;;;;;5093536;28;20182;-42
2021/05/26 06:15:36;;;;;;;4.95;1.60;;;;;;;;;;5083499;28;20178;-42
2021/05/26 06:18:03;;;;;;;3.42;1.20;;;;;;;;;;5087932;28;20174;-42
2021/05/26 06:20:29;;;;;;;6.75;1.52;;;;;;;;;;5081491;28;20661;-42
2021/05/26 06:22:56;;;;;;;2.65;1.60;;;;;;;;;;5077728;28;20195;-42
2021/05/26 06:25:22;;;;;;;4.93;1.55;;;;;;;;;;5088466;28;20177;-42
2021/05/26 06:27:48;;;;;;;2.80;1.15;;;;;;;;;;5093359;28;20456;-42
2021/05/26 06:30:14;;;;;;;2.10;0.93;;;;;;;;;;5093205;28;20220;-42
2021/05/26 06:32:40;;;;;;;5.80;1.30;;;;;;;;;;5094641;28;20192;-42
2021/05/26 06:35:06;;;;;;;4.53;1.45;;;;;;;;;;5094547;28;20178;-42
2021/05/26 06:37:32;;;;;;;3.60;1.00;;;;;;;;;;5078079;28;20178;-42
2021/05/26 06:39:58;;;;;;;3.88;1.00;;;;;;;;;;5092879;28;20165;-42
2021/05/26 06:42:24;;;;;;;5.28;1.33;;;;;;;;;;5087313;28;20573;-42
2021/05/26 06:44:51;;;;;;;3.00;1.30;;;;;;;;;;5082241;28;20192;-42
2021/05/26 06:47:17;;;;;;;5.50;1.13;;;;;;;;;;5082894;28;20182;-42
2021/05/26 06:49:43;;;;;;;3.08;1.10;;;;;;;;;;5096968;28;20452;-42
2021/05/26 06:52:10;;;;;;;2.92;1.20;;;;;;;;;;5088167;28;20181;-42
2021/05/26 06:54:36;;;;;;;3.88;1.40;;;;;;;;;;5095715;28;20192;-42
2021/05/26 06:57:02;;;;;;;2.45;1.02;;;;;;;;;;5094843;28;20569;-42
2021/05/26 06:59:28;;;;;;;2.38;0.88;;;;;;;;;;5086748;28;20174;-42
2021/05/26 07:01:54;;;;;;;1.65;1.10;;;;;;;;;;5094573;28;20231;-42
2021/05/26 07:04:20;;;;;;;2.33;1.00;;;;;;;;;;5095832;28;20205;-42
2021/05/26 07:06:46;;;;;;;2.97;1.10;;;;;;;;;;5076603;28;20235;-42
2021/05/26 07:09:12;;;;;;;5.85;1.60;;;;;;;;;;5095197;28;20211;-42
2021/05/26 07:11:38;;;;;;;3.75;1.30;;;;;;;;;;5093869;28;20250;-42
2021/05/26 07:14:05;;;;;;;4.10;1.27;;;;;;;;;;5092497;28;20507;-42
2021/05/26 07:16:31;;;;;;;5.85;1.50;;;;;;;;;;5083316;28;20239;-42
2021/05/26 07:18:59;;;;;;;2.05;1.27;;;;;;;;;;5094957;28;20177;-42
2021/05/26 07:21:25;;;;;;;2.17;1.05;;;;;;;;;;5088795;28;20190;-42
2021/05/26 07:23:52;;;;;;;4.55;1.08;;;;;;;;;;5089962;28;20246;-42
2021/05/26 07:26:18;;;;;;;2.55;1.25;;;;;;;;;;5089337;28;20181;-42
2021/05/26 07:28:45;;;;;;;6.15;1.65;;;;;;;;;;5090404;28;20174;-42
2021/05/26 07:31:12;;;;;;;6.57;1.73;;;;;;;;;;5075731;28;20210;-42
2021/05/26 07:33:38;;;;;;;4.57;1.50;;;;;;;;;;5084911;28;20179;-42
2021/05/26 07:36:04;;;;;;;3.40;1.55;;;;;;;;;;5090164;28;20207;-42
2021/05/26 07:38:30;;;;;;;3.03;1.38;;;;;;;;;;5094703;28;20177;-42
2021/05/26 07:40:57;;;;;;;4.93;1.52;;;;;;;;;;5088964;28;20186;-42
2021/05/26 07:43:23;;;;;;;3.63;1.60;;;;;;;;;;5085822;28;20639;-42
2021/05/26 07:45:50;;;;;;;3.25;1.10;;;;;;;;;;5085360;28;20190;-42
2021/05/26 07:48:17;;;;;;;2.20;1.25;;;;;;;;;;5087855;28;20544;-42
2021/05/26 07:50:44;;;;;;;2.15;0.90;;;;;;;;;;5083053;28;20191;-42
2021/05/26 07:53:10;;;;;;;2.55;1.10;;;;;;;;;;5090378;28;20227;-42
2021/05/26 07:55:36;;;;;;;2.88;1.30;;;;;;;;;;5095270;28;20557;-42
2021/05/26 07:58:03;;;;;;;3.78;1.20;;;;;;;;;;5083155;28;20199;-42
2021/05/26 08:00:29;;;;;;;3.90;1.10;;;;;;;;;;5087598;28;20208;-42
2021/05/26 08:02:55;;;;;;;1.58;1.00;;;;;;;;;;5094069;28;20640;-42
2021/05/26 08:05:23;;;;;;;2.22;1.25;;;;;;;;;;5094827;28;20223;-42
2021/05/26 08:07:49;;;;;;;1.58;1.00;;;;;;;;;;5094255;28;20608;-42
2021/05/26 08:10:15;;;;;;;2.35;1.00;;;;;;;;;;5082373;28;20265;-42
2021/05/26 08:12:42;;;;;;;2.35;1.13;;;;;;;;;;5073868;28;20568;-42
2021/05/26 08:15:09;;;;;;;2.33;0.93;;;;;;;;;;5074963;28;20423;-42
2021/05/26 08:17:35;;;;;;;3.08;1.00;;;;;;;;;;5074074;28;20227;-42
2021/05/26 08:20:02;;;;;;;3.05;1.23;;;;;;;;;;5084178;28;20544;-42
2021/05/26 08:22:29;;;;;;;3.33;1.00;;;;;;;;;;5093918;28;20274;-42
2021/05/26 08:24:55;;;;;;;2.85;1.33;;;;;;;;;;5094442;28;20741;-42
2021/05/26 08:27:21;;;;;;;2.00;0.82;;;;;;;;;;5091258;28;20182;-42
2021/05/26 08:29:47;;;;;;;2.70;0.90;;;;;;;;;;5089378;28;20198;-42
2021/05/26 08:32:13;;;;;;;3.55;1.02;;;;;;;;;;5097687;28;20561;-42
2021/05/26 08:34:40;;;;;;;3.90;1.00;;;;;;;;;;5098726;28;20191;-42
2021/05/26 08:37:07;;;;;;;1.88;0.90;;;;;;;;;;5098485;28;20553;-42
2021/05/26 08:39:35;;;;;;;3.05;0.90;;;;;;;;;;5090485;28;20267;-42
2021/05/26 08:42:02;;;;;;;5.57;1.10;;;;;;;;;;5092299;28;20177;-42
2021/05/26 08:44:28;;;;;;;2.97;1.08;;;;;;;;;;5084277;28;20618;-42
2021/05/26 08:46:54;;;;;;;4.07;0.90;;;;;;;;;;5098393;28;20555;-42
2021/05/26 08:49:22;;;;;;;5.13;0.80;;;;;;;;;;5094939;28;20188;-42
2021/05/26 08:51:48;;;;;;;1.60;0.75;;;;;;;;;;5098088;28;20432;-42
2021/05/26 08:54:17;;;;;;;2.75;1.00;;;;;;;;;;5098170;28;20174;-42
2021/05/26 08:56:44;;;;;;;3.50;0.88;;;;;;;;;;5087977;28;20260;-42
2021/05/26 08:59:10;;;;;;;3.35;1.08;;;;;;;;;;5097354;28;20181;-42
2021/05/26 09:01:36;;;;;;;1.25;0.80;;;;;;;;;;5091708;28;20304;-42
2021/05/26 09:04:21;;;;;;;3.92;1.00;;;;;;;;;;5092470;28;20213;-42
2021/05/26 09:07:04;;;;;;;1.88;0.85;;;;;;;;;;5097010;28;20201;-42
2021/05/26 09:09:50;;;;;;;3.35;0.80;;;;;;;;;;5097383;28;20204;-42
2021/05/26 09:12:24;;;;;;;2.55;0.90;;;;;;;;;;5097139;28;20189;-42
2021/05/26 09:14:51;;;;;;;1.05;0.93;;;;;;;;;;5097241;28;20188;-42
2021/05/26 09:17:17;;;;;;;1.88;0.90;;;;;;;;;;5095167;28;20166;-42
2021/05/26 09:19:43;;;;;;;1.85;0.98;;;;;;;;;;5090659;28;20265;-42
2021/05/26 09:22:10;;;;;;;2.10;0.90;;;;;;;;;;5096447;28;20437;-42
2021/05/26 09:24:36;;;;;;;3.53;0.90;;;;;;;;;;5092846;28;20182;-42
2021/05/26 09:27:06;;;;;;;1.60;0.80;;;;;;;;;;5094074;28;20186;-42
2021/05/26 09:29:42;;;;;;;1.70;0.80;;;;;;;;;;5094944;28;20178;-42
2021/05/26 09:32:26;;;;;;;3.13;0.88;;;;;;;;;;5083284;28;20173;-42
2021/05/26 09:34:53;;;;;;;1.67;0.70;;;;;;;;;;5113168;28;20188;-42
2021/05/26 09:37:20;;;;;;;3.25;0.90;;;;;;;;;;5100691;28;20174;-42
2021/05/26 09:40:03;;;;;;;1.65;0.77;;;;;;;;;;5095125;28;20252;-42
2021/05/26 09:42:41;;;;;;;4.88;0.70;;;;;;;;;;5079198;28;20432;-42
2021/05/26 09:45:18;;;;;;;1.27;0.73;;;;;;;;;;5096005;28;20189;-42
2021/05/26 09:47:45;;;;;;;2.13;0.90;;;;;;;;;;5090518;28;20178;-42
2021/05/26 09:50:30;;;;;;;1.13;0.60;;;;;;;;;;5096121;28;20209;-42
2021/05/26 09:53:12;;;;;;;1.02;0.57;;;;;;;;;;5090016;28;20186;-42
2021/05/26 09:55:39;;;;;;;2.75;0.90;;;;;;;;;;5097690;28;20909;-42
2021/05/26 09:58:09;;;;;;;2.38;0.60;;;;;;;;;;5097734;28;20181;-42
2021/05/26 10:00:36;;;;;;;1.73;0.60;;;;;;;;;;5089510;28;20182;-42
2021/05/26 10:03:03;;;;;;;0.82;0.68;;;;;;;;;;5083163;28;20198;-42
2021/05/26 10:05:29;;;;;;;1.98;0.93;;;;;;;;;;5081182;28;20178;-42
2021/05/26 10:07:58;;;;;;;1.35;0.90;;;;;;;;;;5076185;28;20231;-42
2021/05/26 10:10:27;;;;;;;1.90;1.33;;;;;;;;;;5077236;28;20228;-42
2021/05/26 10:12:54;;;;;;;15.60;9.63;;;;;;;;;;5075986;28;20171;-42
2021/05/26 10:15:22;;;;;;;29.60;14.85;;;;;;;;;;5076689;28;20159;-42
2021/05/26 10:17:50;;;;;;;54.03;32.80;;;;;;;;;;5096768;28;20422;-42
2021/05/26 10:20:17;;;;;;;121.88;69.55;;;;;;;;;;5092909;28;20174;-42
2021/05/26 10:22:43;;;;;;;164.00;95.18;;;;;;;;;;5080269;28;20202;-42
2021/05/26 10:25:12;;;;;;;174.63;100.45;;;;;;;;;;5096208;28;20460;-42
2021/05/26 10:27:43;;;;;;;178.10;104.28;;;;;;;;;;5095386;28;20226;-42
2021/05/26 10:30:10;;;;;;;166.90;97.10;;;;;;;;;;5094560;28;20161;-42
2021/05/26 10:32:51;;;;;;;157.45;94.72;;;;;;;;;;5095402;28;20170;-42
2021/05/26 10:35:17;;;;;;;145.98;89.75;;;;;;;;;;5095474;28;20201;-42
2021/05/26 10:37:44;;;;;;;150.27;87.05;;;;;;;;;;5095753;28;20185;-42
2021/05/26 10:40:33;;;;;;;148.55;84.47;;;;;;;;;;5094347;28;20166;-42
2021/05/26 10:43:21;;;;;;;129.85;79.22;;;;;;;;;;5095708;28;20213;-42
2021/05/26 10:45:54;;;;;;;131.23;76.97;;;;;;;;;;5091427;28;20162;-42
2021/05/26 10:48:39;;;;;;;128.02;72.28;;;;;;;;;;5098753;28;20180;-42
2021/05/26 10:51:05;;;;;;;116.18;70.25;;;;;;;;;;5111753;28;20189;-42
2021/05/26 10:53:39;;;;;;;109.60;66.68;;;;;;;;;;5094892;28;20192;-42
2021/05/26 10:56:04;;;;;;;100.75;61.22;;;;;;;;;;5086115;28;20182;-42
2021/05/26 10:58:41;;;;;;;94.75;55.78;;;;;;;;;;5092904;28;20195;-42
2021/05/26 11:01:10;;;;;;;99.20;57.80;;;;;;;;;;5094971;28;20178;-42
2021/05/26 11:03:37;;;;;;;87.82;53.92;;;;;;;;;;5095428;28;20193;-42
2021/05/26 11:06:10;;;;;;;95.32;53.55;;;;;;;;;;5084833;28;20174;-42
2021/05/26 11:08:38;;;;;;;80.72;49.05;;;;;;;;;;5090022;28;20178;-42
2021/05/26 11:11:19;;;;;;;81.15;47.90;;;;;;;;;;5090143;28;20216;-42
2021/05/26 11:14:01;;;;;;;76.10;47.03;;;;;;;;;;5091659;28;20178;-42
2021/05/26 11:16:49;;;;;;;75.68;43.05;;;;;;;;;;5075427;28;20269;-42
2021/05/26 11:19:20;;;;;;;73.25;42.47;;;;;;;;;;5092926;28;20448;-42
2021/05/26 11:22:05;;;;;;;68.97;41.65;;;;;;;;;;5094741;28;20177;-42
2021/05/26 11:24:36;;;;;;;63.72;38.10;;;;;;;;;;5087725;28;20225;-42
2021/05/26 11:27:02;;;;;;;56.10;35.63;;;;;;;;;;5074803;28;20166;-42
2021/05/26 11:29:28;;;;;;;59.47;35.58;;;;;;;;;;5076880;28;20215;-42
2021/05/26 11:32:24;;;;;;;54.40;32.70;;;;;;;;;;5094636;28;20694;-42
2021/05/26 11:34:50;;;;;;;49.22;30.15;;;;;;;;;;5073999;28;20190;-42
2021/05/26 11:37:26;;;;;;;52.25;29.42;;;;;;;;;;5095190;28;20616;-42
2021/05/26 11:39:52;;;;;;;44.60;28.50;;;;;;;;;;5094653;28;20211;-42
2021/05/26 11:42:20;;;;;;;41.55;25.48;;;;;;;;;;5093952;28;20632;-42
2021/05/26 11:45:02;;;;;;;39.10;24.85;;;;;;;;;;5094249;28;20169;-42
2021/05/26 11:47:47;;;;;;;35.13;23.13;;;;;;;;;;5084883;28;20180;-42
2021/05/26 11:50:14;;;;;;;40.97;23.02;;;;;;;;;;5074693;28;20182;-42
2021/05/26 11:52:45;;;;;;;35.55;22.10;;;;;;;;;;5073994;28;20177;-42
2021/05/26 11:55:11;;;;;;;31.38;19.60;;;;;;;;;;5088950;28;20180;-42
2021/05/26 11:57:41;;;;;;;31.02;19.58;;;;;;;;;;5093840;28;20173;-42
2021/05/26 12:00:08;;;;;;;29.95;19.33;;;;;;;;;;5080970;28;20788;-42
2021/05/26 12:02:34;;;;;;;32.53;19.73;;;;;;;;;;5081096;28;20284;-42
2021/05/26 12:05:01;;;;;;;25.80;17.08;;;;;;;;;;5074547;28;20239;-42
2021/05/26 12:07:27;;;;;;;24.10;15.77;;;;;;;;;;5092909;28;20182;-42
2021/05/26 12:10:01;;;;;;;24.20;15.02;;;;;;;;;;5072503;28;20193;-42
2021/05/26 12:12:27;;;;;;;21.92;13.85;;;;;;;;;;5081790;28;20265;-42
2021/05/26 12:14:53;;;;;;;21.25;13.60;;;;;;;;;;5078433;28;20178;-42
2021/05/26 12:17:20;;;;;;;21.10;13.07;;;;;;;;;;5092978;28;20185;-42
2021/05/26 12:19:47;;;;;;;18.63;11.95;;;;;;;;;;5091550;28;20178;-42
2021/05/26 12:22:16;;;;;;;18.83;11.73;;;;;;;;;;5092425;28;20174;-42
2021/05/26 12:25:14;;;;;;;17.40;11.05;;;;;;;;;;5094286;28;20282;-42
2021/05/26 12:27:45;;;;;;;17.00;11.05;;;;;;;;;;5030014;28;20645;-42
2021/05/26 12:30:11;;;;;;;16.25;9.60;;;;;;;;;;5073535;28;20183;-42
2021/05/26 12:32:37;;;;;;;15.65;9.45;;;;;;;;;;5073537;28;20177;-42
2021/05/26 12:35:04;;;;;;;13.68;8.38;;;;;;;;;;5074441;28;20438;-42
2021/05/26 12:37:40;;;;;;;14.73;9.07;;;;;;;;;;5089071;28;20189;-42
2021/05/26 12:40:06;;;;;;;12.02;7.95;;;;;;;;;;5094239;28;20162;-42
2021/05/26 12:42:35;;;;;;;16.35;8.23;;;;;;;;;;5089036;28;20261;-42
2021/05/26 12:45:18;;;;;;;12.60;7.90;;;;;;;;;;5094625;28;20478;-42
2021/05/26 12:47:44;;;;;;;12.05;8.07;;;;;;;;;;5094576;28;20174;-42
2021/05/26 12:50:14;;;;;;;14.38;8.20;;;;;;;;;;5114674;28;20314;-42
2021/05/26 12:52:40;;;;;;;12.13;7.60;;;;;;;;;;5096437;28;20239;-42
2021/05/26 12:55:07;;;;;;;16.20;7.25;;;;;;;;;;5091480;28;20178;-42
2021/05/26 12:57:33;;;;;;;13.73;7.32;;;;;;;;;;5093000;28;20181;-42
2021/05/26 13:00:00;;;;;;;9.77;6.00;;;;;;;;;;5090349;28;20183;-42
2021/05/26 13:02:31;;;;;;;11.55;6.72;;;;;;;;;;5089644;28;20553;-42
2021/05/26 13:04:57;;;;;;;10.27;6.07;;;;;;;;;;5089366;28;20182;-42
2021/05/26 13:07:24;;;;;;;9.48;5.78;;;;;;;;;;5089959;28;20184;-42
2021/05/26 13:09:50;;;;;;;10.10;6.00;;;;;;;;;;5094169;28;20189;-42
2021/05/26 13:12:42;;;;;;;9.45;5.70;;;;;;;;;;5092814;28;20202;-42
2021/05/26 13:15:21;;;;;;;8.77;5.38;;;;;;;;;;5088479;28;20189;-42
2021/05/26 13:17:47;;;;;;;7.82;5.30;;;;;;;;;;5097442;28;20196;-42
2021/05/26 13:20:20;;;;;;;8.85;5.47;;;;;;;;;;5082275;28;20193;-42
2021/05/26 13:22:46;;;;;;;7.70;5.30;;;;;;;;;;5076838;28;20198;-42
2021/05/26 13:25:12;;;;;;;6.88;4.60;;;;;;;;;;5090841;28;20268;-43
2021/05/26 13:27:41;;;;;;;7.05;4.40;;;;;;;;;;5084672;28;20568;-42
2021/05/26 13:30:08;;;;;;;5.55;3.90;;;;;;;;;;5094929;28;20186;-42
2021/05/26 13:32:34;;;;;;;7.13;4.20;;;;;;;;;;5092700;28;20433;-42
2021/05/26 13:35:00;;;;;;;7.22;4.22;;;;;;;;;;5097469;28;20169;-42
2021/05/26 13:37:26;;;;;;;5.93;3.97;;;;;;;;;;5079491;28;20557;-42
2021/05/26 13:39:52;;;;;;;6.55;3.78;;;;;;;;;;5096157;28;20555;-42
2021/05/26 13:42:18;;;;;;;6.53;3.85;;;;;;;;;;5096519;28;20213;-42
2021/05/26 13:44:44;;;;;;;5.57;3.75;;;;;;;;;;5096740;28;20274;-42
2021/05/26 13:47:10;;;;;;;5.65;3.40;;;;;;;;;;5097264;28;20257;-42
2021/05/26 13:49:36;;;;;;;4.85;3.25;;;;;;;;;;5103518;28;20185;-42
2021/05/26 13:52:02;;;;;;;3.83;2.85;;;;;;;;;;5095890;28;20678;-42
2021/05/26 13:54:28;;;;;;;3.50;2.78;;;;;;;;;;5096942;28;20186;-42
2021/05/26 13:56:55;;;;;;;4.47;2.70;;;;;;;;;;5094340;28;20341;-42
2021/05/26 13:59:21;;;;;;;3.40;2.60;;;;;;;;;;5085857;28;20186;-42
2021/05/26 14:01:47;;;;;;;8.52;2.92;;;;;;;;;;5076276;28;20163;-42
2021/05/26 14:04:14;;;;;;;6.07;2.70;;;;;;;;;;5077579;28;20213;-42
2021/05/26 14:06:41;;;;;;;4.68;2.10;;;;;;;;;;5092797;28;20170;-42
2021/05/26 14:09:07;;;;;;;3.28;2.20;;;;;;;;;;5078957;28;20561;-42
2021/05/26 14:11:33;;;;;;;2.92;2.05;;;;;;;;;;5075822;28;20531;-42
2021/05/26 14:13:59;;;;;;;4.43;2.30;;;;;;;;;;5077661;28;20372;-42
2021/05/26 14:16:25;;;;;;;2.90;2.20;;;;;;;;;;5094788;28;20452;-42
2021/05/26 14:18:51;;;;;;;2.58;1.92;;;;;;;;;;5081710;28;20248;-42
2021/05/26 14:21:18;;;;;;;3.28;2.10;;;;;;;;;;5078535;28;20186;-42
2021/05/26 14:23:44;;;;;;;2.65;2.25;;;;;;;;;;5096388;28;20196;-42
2021/05/26 14:26:10;;;;;;;2.70;1.80;;;;;;;;;;5075621;28;20174;-42
2021/05/26 14:28:36;;;;;;;4.15;2.13;;;;;;;;;;5080128;28;20182;-42
2021/05/26 14:31:05;;;;;;;1.70;1.60;;;;;;;;;;5088595;28;20201;-42
2021/05/26 14:33:31;;;;;;;2.60;1.58;;;;;;;;;;5089391;28;20416;-42
2021/05/26 14:35:58;;;;;;;2.50;1.65;;;;;;;;;;5085271;28;20261;-42
2021/05/26 14:40:57;;;;;;;1.63;1.40;;;;;;;;;;5094785;28;20295;-42
2021/05/26 14:43:23;;;;;;;3.50;1.70;;;;;;;;;;5084469;28;20268;-42
2021/05/26 14:45:49;;;;;;;1.98;1.58;;;;;;;;;;5076082;28;20178;-42
2021/05/26 14:48:15;;;;;;;1.63;1.40;;;;;;;;;;5086142;28;20169;-42